Time;durP1;ratioP1;P1;durP2;ratioP2;P2;SDS_P1;SDS_P2;PMS_P1;PMS_P2;Temp;Humidity;BMP_temperature;BMP_pressure;BME280_temperature;BME280_humidity;BME280_pressure;Samples;Min_cycle;Max_cycle;Signal;HPM_P1;HPM_P2
2022/03/05 00:00:48;;;;;;;17.53;7.23;;;3.30;92.60;;;;;;4937785;29;20063;-75
2022/03/05 00:03:14;;;;;;;16.47;6.80;;;3.30;92.40;;;;;;4911322;29;20473;-75
2022/03/05 00:05:40;;;;;;;17.40;7.40;;;3.20;92.70;;;;;;4902284;29;21714;-75
2022/03/05 00:08:06;;;;;;;15.33;6.53;;;3.10;92.80;;;;;;4901531;29;20461;-76
2022/03/05 00:10:32;;;;;;;15.20;6.53;;;3.10;93.20;;;;;;4916121;29;20037;-75
2022/03/05 00:12:58;;;;;;;16.23;6.30;;;3.10;93.20;;;;;;4937638;29;20063;-77
2022/03/05 00:15:24;;;;;;;16.83;6.40;;;3.10;93.00;;;;;;4920456;29;20114;-75
2022/03/05 00:17:52;;;;;;;16.73;7.43;;;3.00;93.40;;;;;;4920461;29;20120;-75
2022/03/05 00:20:18;;;;;;;15.20;6.60;;;3.00;93.40;;;;;;4918778;29;20267;-74
2022/03/05 00:22:45;;;;;;;16.60;6.50;;;3.00;93.30;;;;;;4920304;29;20523;-74
2022/03/05 00:25:12;;;;;;;16.13;6.73;;;3.10;93.60;;;;;;4936748;29;20051;-75
2022/03/05 00:27:39;;;;;;;15.97;6.60;;;3.10;93.70;;;;;;4937335;29;20032;-76
2022/03/05 00:30:05;;;;;;;17.80;6.70;;;3.10;93.60;;;;;;4919806;29;20035;-77
2022/03/05 00:32:31;;;;;;;16.70;6.47;;;3.10;93.70;;;;;;4902038;29;20024;-77
2022/03/05 00:34:56;;;;;;;15.33;6.27;;;3.00;94.10;;;;;;4919207;29;20090;-76
2022/03/05 00:37:22;;;;;;;17.00;6.93;;;3.00;94.30;;;;;;4920250;29;20027;-76
2022/03/05 00:39:48;;;;;;;17.53;7.17;;;2.90;94.50;;;;;;4937955;29;20039;-76
2022/03/05 00:42:13;;;;;;;14.33;5.80;;;2.80;94.60;;;;;;4919630;29;20134;-76
2022/03/05 00:44:39;;;;;;;15.57;7.20;;;2.80;94.40;;;;;;4924313;29;20148;-76
2022/03/05 00:47:05;;;;;;;15.53;6.03;;;2.80;94.40;;;;;;4916060;29;20032;-75
2022/03/05 00:49:31;;;;;;;14.87;6.73;;;2.80;94.40;;;;;;4928231;29;20043;-76
2022/03/05 00:51:57;;;;;;;15.57;6.50;;;2.70;94.50;;;;;;4910774;29;20028;-76
2022/03/05 00:54:22;;;;;;;18.10;7.20;;;2.70;94.70;;;;;;4910857;29;20024;-76
2022/03/05 00:56:48;;;;;;;14.73;6.00;;;2.60;94.60;;;;;;4908826;29;20043;-76
2022/03/05 00:59:14;;;;;;;14.83;6.23;;;2.60;95.00;;;;;;4926170;29;20054;-77
2022/03/05 01:01:40;;;;;;;17.53;6.83;;;2.60;94.90;;;;;;4923418;29;20059;-75
2022/03/05 01:04:06;;;;;;;14.53;6.40;;;2.60;95.20;;;;;;4917321;29;20035;-77
2022/03/05 01:06:31;;;;;;;15.87;6.00;;;2.50;95.20;;;;;;4915342;29;20028;-77
2022/03/05 01:09:02;;;;;;;15.87;7.17;;;2.50;95.20;;;;;;4928151;29;20044;-76
2022/03/05 01:11:27;;;;;;;16.63;6.60;;;2.40;95.30;;;;;;4908778;29;20051;-76
2022/03/05 01:13:53;;;;;;;14.97;6.60;;;2.50;95.20;;;;;;4920412;29;20483;-76
2022/03/05 01:16:19;;;;;;;16.37;6.63;;;2.50;95.50;;;;;;4907499;29;20031;-75
2022/03/05 01:18:45;;;;;;;14.57;6.50;;;2.40;95.60;;;;;;4918285;29;20028;-76
2022/03/05 01:21:11;;;;;;;18.07;7.80;;;2.40;95.80;;;;;;4905086;29;20388;-76
2022/03/05 01:23:36;;;;;;;13.43;6.17;;;2.40;95.90;;;;;;4919727;29;20110;-75
2022/03/05 01:26:02;;;;;;;18.20;6.67;;;2.30;96.10;;;;;;4932894;29;20024;-76
2022/03/05 01:28:28;;;;;;;19.40;7.00;;;2.30;96.10;;;;;;4909824;29;20031;-75
2022/03/05 01:30:54;;;;;;;15.37;6.87;;;2.30;96.00;;;;;;4932315;29;20073;-76
2022/03/05 01:33:21;;;;;;;16.23;6.67;;;2.20;96.00;;;;;;4918919;29;20046;-76
2022/03/05 01:35:48;;;;;;;17.90;6.67;;;2.30;95.90;;;;;;4919617;29;20032;-75
2022/03/05 01:38:14;;;;;;;14.03;6.50;;;2.20;96.20;;;;;;4920188;29;20063;-76
2022/03/05 01:40:40;;;;;;;15.87;6.90;;;2.20;96.20;;;;;;4912643;29;20486;-75
2022/03/05 01:43:06;;;;;;;15.23;6.20;;;2.20;96.20;;;;;;4917965;29;20031;-76
2022/03/05 01:45:32;;;;;;;15.40;6.43;;;2.20;96.20;;;;;;4907241;29;20036;-76
2022/03/05 01:47:58;;;;;;;16.43;7.10;;;2.20;96.10;;;;;;4925384;29;20492;-76
2022/03/05 01:50:25;;;;;;;15.53;6.57;;;2.20;96.10;;;;;;4909481;29;20453;-76
2022/03/05 01:52:50;;;;;;;16.03;6.70;;;2.20;96.10;;;;;;4926439;29;20024;-75
2022/03/05 01:55:16;;;;;;;13.10;6.53;;;2.20;96.40;;;;;;4923813;29;20027;-76
2022/03/05 01:57:42;;;;;;;17.27;7.07;;;2.20;96.30;;;;;;4926884;29;20050;-77
2022/03/05 02:00:10;;;;;;;18.57;7.30;;;2.10;96.40;;;;;;4907703;29;20036;-76
2022/03/05 02:02:35;;;;;;;15.17;7.30;;;2.10;96.60;;;;;;4912374;29;20024;-76
2022/03/05 02:05:01;;;;;;;13.63;6.50;;;2.10;96.60;;;;;;4912727;29;20035;-75
2022/03/05 02:07:26;;;;;;;17.60;7.10;;;2.00;96.90;;;;;;4908636;29;20063;-75
2022/03/05 02:09:52;;;;;;;16.23;6.77;;;2.00;96.80;;;;;;4908015;29;20460;-76
2022/03/05 02:12:18;;;;;;;14.17;6.00;;;2.00;96.80;;;;;;4924017;29;20036;-76
2022/03/05 02:14:44;;;;;;;12.83;5.73;;;2.00;97.00;;;;;;4927247;29;20035;-77
2022/03/05 02:17:10;;;;;;;14.97;6.97;;;2.00;97.10;;;;;;4906989;29;20028;-76
2022/03/05 02:19:36;;;;;;;15.73;6.73;;;1.90;97.10;;;;;;4927027;29;20042;-76
2022/03/05 02:22:03;;;;;;;15.13;6.83;;;1.90;97.30;;;;;;4908225;29;20020;-76
2022/03/05 02:24:31;;;;;;;14.80;6.73;;;1.90;97.30;;;;;;4909980;29;20031;-76
2022/03/05 02:27:06;;;;;;;15.87;6.53;;;1.90;97.20;;;;;;4926958;29;20026;-77
2022/03/05 02:29:36;;;;;;;17.50;7.13;;;1.90;97.30;;;;;;4907263;29;20057;-77
2022/03/05 02:32:03;;;;;;;14.10;6.53;;;1.90;97.10;;;;;;4907315;29;20131;-77
2022/03/05 02:34:30;;;;;;;17.00;7.40;;;1.90;97.10;;;;;;4926646;29;20146;-77
2022/03/05 02:36:56;;;;;;;14.23;6.73;;;1.90;97.00;;;;;;4921955;29;20024;-77
2022/03/05 02:39:25;;;;;;;14.60;6.50;;;1.90;97.10;;;;;;4899523;29;20034;-77
2022/03/05 02:41:54;;;;;;;15.63;7.30;;;1.80;97.00;;;;;;4916831;29;20038;-77
2022/03/05 02:44:21;;;;;;;16.13;6.53;;;1.80;97.10;;;;;;4915543;29;20458;-77
2022/03/05 02:46:47;;;;;;;16.00;6.30;;;1.80;97.20;;;;;;4899785;29;20025;-78
2022/03/05 02:49:12;;;;;;;14.40;6.67;;;1.80;97.20;;;;;;4899288;29;20087;-77
2022/03/05 02:51:38;;;;;;;12.60;5.90;;;1.80;97.10;;;;;;4900060;29;20040;-77
2022/03/05 02:54:04;;;;;;;13.63;7.03;;;1.80;97.30;;;;;;4899630;29;20036;-76
2022/03/05 02:56:30;;;;;;;13.33;6.67;;;1.80;97.40;;;;;;4916453;29;20043;-77
2022/03/05 02:58:56;;;;;;;14.90;6.10;;;1.70;97.40;;;;;;4899715;29;20029;-76
2022/03/05 03:01:21;;;;;;;16.73;6.70;;;1.70;97.50;;;;;;4898669;29;20029;-77
2022/03/05 03:03:47;;;;;;;17.67;6.57;;;1.70;97.80;;;;;;4899376;29;20032;-77
2022/03/05 03:06:13;;;;;;;13.33;6.50;;;1.70;97.90;;;;;;4915863;29;20043;-76
2022/03/05 03:08:38;;;;;;;15.37;6.83;;;1.60;98.10;;;;;;4916381;29;20075;-77
2022/03/05 03:11:04;;;;;;;13.13;6.20;;;1.60;98.20;;;;;;4916119;29;20468;-76
2022/03/05 03:13:30;;;;;;;15.13;6.47;;;1.60;98.20;;;;;;4898697;29;20036;-76
2022/03/05 03:15:55;;;;;;;15.07;6.40;;;1.60;98.10;;;;;;4899394;29;20040;-77
2022/03/05 03:18:21;;;;;;;14.53;6.10;;;1.60;98.10;;;;;;4898986;29;20032;-77
2022/03/05 03:20:46;;;;;;;13.47;5.80;;;1.50;98.20;;;;;;4899317;29;20029;-77
2022/03/05 03:23:12;;;;;;;15.37;6.30;;;1.50;98.30;;;;;;4898590;29;20036;-77
2022/03/05 03:25:41;;;;;;;14.23;6.20;;;1.50;98.30;;;;;;4899520;29;20028;-76
2022/03/05 03:28:08;;;;;;;15.87;6.60;;;1.50;98.40;;;;;;4898902;29;20123;-75
2022/03/05 03:30:34;;;;;;;13.47;6.23;;;1.40;98.40;;;;;;4915730;29;20032;-76
2022/03/05 03:33:00;;;;;;;12.77;6.07;;;1.40;98.70;;;;;;4915898;29;20028;-76
2022/03/05 03:35:27;;;;;;;16.53;6.30;;;1.40;98.60;;;;;;4917536;29;20632;-76
2022/03/05 03:37:53;;;;;;;13.23;6.10;;;1.40;98.70;;;;;;4903042;29;20034;-76
2022/03/05 03:40:20;;;;;;;16.20;6.70;;;1.30;98.60;;;;;;4902273;29;20032;-76
2022/03/05 03:42:48;;;;;;;14.07;6.80;;;1.40;98.70;;;;;;4919614;29;20036;-75
2022/03/05 03:45:15;;;;;;;14.87;6.53;;;1.30;98.70;;;;;;4901595;29;20040;-76
2022/03/05 03:47:43;;;;;;;13.63;5.90;;;1.30;98.80;;;;;;4919776;29;20036;-75
2022/03/05 03:50:10;;;;;;;14.60;6.20;;;1.30;98.90;;;;;;4902071;29;20032;-76
2022/03/05 03:52:36;;;;;;;12.87;5.97;;;1.30;99.00;;;;;;4902458;29;20032;-75
2022/03/05 03:55:05;;;;;;;12.53;5.90;;;1.20;99.00;;;;;;4902536;29;20456;-76
2022/03/05 03:57:31;;;;;;;12.80;6.00;;;1.20;99.20;;;;;;4901860;29;20035;-76
2022/03/05 03:59:56;;;;;;;13.80;6.13;;;1.10;99.40;;;;;;4902487;29;20032;-75
2022/03/05 04:02:22;;;;;;;15.13;6.10;;;1.10;99.50;;;;;;4901638;29;20028;-75
2022/03/05 04:04:49;;;;;;;15.03;6.43;;;1.10;99.60;;;;;;4919230;29;20029;-76
2022/03/05 04:09:59;;;;;;;13.87;6.00;;;1.10;99.90;;;;;;4919234;29;20039;-75
2022/03/05 04:12:25;;;;;;;14.33;7.07;;;1.10;99.90;;;;;;4901131;29;20048;-76
2022/03/05 04:14:50;;;;;;;13.87;5.83;;;1.10;99.90;;;;;;4918647;29;20485;-75
2022/03/05 04:17:16;;;;;;;17.23;6.77;;;1.10;99.90;;;;;;4901371;29;20036;-75
2022/03/05 04:19:43;;;;;;;13.83;6.07;;;1.00;99.90;;;;;;4902063;29;20035;-76
2022/03/05 04:22:09;;;;;;;14.13;5.97;;;1.00;99.90;;;;;;4901894;29;20504;-76
2022/03/05 04:24:35;;;;;;;12.07;6.17;;;1.00;99.90;;;;;;4901626;29;20064;-75
2022/03/05 04:27:01;;;;;;;13.30;6.17;;;1.00;99.90;;;;;;4902015;29;20385;-76
2022/03/05 04:29:27;;;;;;;14.57;6.33;;;1.00;99.90;;;;;;4901033;29;20385;-75
2022/03/05 04:31:52;;;;;;;12.83;6.07;;;0.90;99.90;;;;;;4901660;29;20504;-76
2022/03/05 04:34:19;;;;;;;15.07;6.23;;;0.90;99.90;;;;;;4900979;29;20095;-76
2022/03/05 04:36:44;;;;;;;14.97;6.13;;;0.90;99.90;;;;;;4901876;29;20032;-76
2022/03/05 04:39:10;;;;;;;15.60;6.57;;;0.80;99.90;;;;;;4918714;29;20115;-76
2022/03/05 04:41:36;;;;;;;19.40;6.50;;;0.80;99.90;;;;;;4918384;29;20119;-77
2022/03/05 04:44:02;;;;;;;12.93;6.17;;;0.80;99.90;;;;;;4902091;29;20028;-76
2022/03/05 04:46:28;;;;;;;13.90;6.00;;;0.80;99.90;;;;;;4900173;29;20028;-76
2022/03/05 04:48:54;;;;;;;16.83;7.00;;;0.80;99.90;;;;;;4901737;29;20034;-76
2022/03/05 04:51:19;;;;;;;13.80;5.90;;;0.80;99.90;;;;;;4901056;29;20087;-76
2022/03/05 04:53:45;;;;;;;14.07;6.20;;;0.80;99.90;;;;;;4918533;29;20084;-76
2022/03/05 04:56:11;;;;;;;14.10;5.83;;;0.70;99.90;;;;;;4901351;29;20032;-76
2022/03/05 04:58:36;;;;;;;16.77;6.70;;;0.70;99.90;;;;;;4900818;29;20076;-77
2022/03/05 05:01:03;;;;;;;15.70;6.27;;;0.70;99.90;;;;;;4901237;29;20119;-76
2022/03/05 05:03:29;;;;;;;17.50;6.10;;;0.70;99.90;;;;;;4900635;29;20024;-76
2022/03/05 05:05:54;;;;;;;15.00;5.80;;;0.60;99.90;;;;;;4918346;29;20087;-77
2022/03/05 05:08:20;;;;;;;15.57;6.73;;;0.60;99.90;;;;;;4900764;29;20028;-77
2022/03/05 05:10:46;;;;;;;18.53;6.83;;;0.60;99.90;;;;;;4918202;29;20032;-77
2022/03/05 05:13:11;;;;;;;14.87;6.33;;;0.50;99.90;;;;;;4901088;29;20036;-77
2022/03/05 05:15:37;;;;;;;14.33;6.47;;;0.50;99.90;;;;;;4917650;29;20476;-77
2022/03/05 05:18:03;;;;;;;18.17;7.20;;;0.50;99.90;;;;;;4918080;29;20477;-77
2022/03/05 05:20:30;;;;;;;15.40;6.00;;;0.50;99.90;;;;;;4917359;29;20028;-77
2022/03/05 05:22:55;;;;;;;15.00;6.40;;;0.50;99.90;;;;;;4901345;29;20031;-76
2022/03/05 05:25:21;;;;;;;15.07;6.43;;;0.50;99.90;;;;;;4900765;29;20028;-76
2022/03/05 05:27:47;;;;;;;14.37;6.23;;;0.50;99.90;;;;;;4900803;29;20035;-77
2022/03/05 05:30:12;;;;;;;16.13;6.97;;;0.50;99.90;;;;;;4900977;29;20044;-76
2022/03/05 05:32:38;;;;;;;15.00;6.87;;;0.50;99.90;;;;;;4900150;29;20054;-77
2022/03/05 05:35:05;;;;;;;15.27;6.20;;;0.50;99.90;;;;;;4917887;29;20409;-76
2022/03/05 05:37:30;;;;;;;15.13;6.43;;;0.50;99.90;;;;;;4900531;29;20032;-76
2022/03/05 05:39:57;;;;;;;16.67;6.63;;;0.50;99.90;;;;;;4901185;29;20088;-77
2022/03/05 05:42:22;;;;;;;15.87;7.50;;;0.50;99.90;;;;;;4900376;29;20075;-77
2022/03/05 05:44:48;;;;;;;13.07;6.53;;;0.40;99.90;;;;;;4901031;29;20071;-77
2022/03/05 05:47:14;;;;;;;14.60;6.57;;;0.40;99.90;;;;;;4900950;29;20393;-76
2022/03/05 05:49:39;;;;;;;17.30;6.87;;;0.40;99.90;;;;;;4900061;29;20085;-77
2022/03/05 05:52:05;;;;;;;17.97;6.63;;;0.30;99.90;;;;;;4900783;29;20028;-77
2022/03/05 05:54:31;;;;;;;14.50;6.37;;;0.40;99.90;;;;;;4899910;29;20038;-76
2022/03/05 05:56:57;;;;;;;16.37;6.23;;;0.30;99.90;;;;;;4917225;29;20028;-77
2022/03/05 05:59:23;;;;;;;16.80;6.20;;;0.30;99.90;;;;;;4899770;29;20437;-77
2022/03/05 06:01:48;;;;;;;17.40;7.30;;;0.30;99.90;;;;;;4900610;29;20032;-77
2022/03/05 06:04:14;;;;;;;15.17;6.47;;;0.30;99.90;;;;;;4900605;29;20095;-76
2022/03/05 06:06:39;;;;;;;16.23;6.13;;;0.30;99.90;;;;;;4916549;29;20036;-76
2022/03/05 06:09:05;;;;;;;15.10;6.87;;;0.30;99.90;;;;;;4900164;29;20029;-77
2022/03/05 06:11:31;;;;;;;15.83;6.47;;;0.30;99.90;;;;;;4899412;29;20047;-77
2022/03/05 06:13:56;;;;;;;13.87;6.60;;;0.30;99.90;;;;;;4900348;29;20028;-76
2022/03/05 06:16:22;;;;;;;16.80;7.20;;;0.30;99.90;;;;;;4899615;29;20035;-76
2022/03/05 06:18:48;;;;;;;12.80;6.47;;;0.30;99.90;;;;;;4900396;29;20032;-76
2022/03/05 06:21:14;;;;;;;15.57;6.40;;;0.30;99.90;;;;;;4916827;29;20032;-75
2022/03/05 06:23:40;;;;;;;16.40;6.93;;;0.30;99.90;;;;;;4899385;29;20352;-76
2022/03/05 06:26:06;;;;;;;21.17;7.60;;;0.30;99.90;;;;;;4899575;29;20499;-76
2022/03/05 06:28:32;;;;;;;17.57;7.17;;;0.30;99.90;;;;;;4898944;29;20099;-76
2022/03/05 06:30:58;;;;;;;16.50;7.00;;;0.30;99.90;;;;;;4916578;29;20052;-77
2022/03/05 06:33:24;;;;;;;18.63;7.63;;;0.30;99.90;;;;;;4899093;29;20206;-76
2022/03/05 06:35:49;;;;;;;17.13;7.37;;;0.40;99.90;;;;;;4916640;29;20024;-76
2022/03/05 06:38:15;;;;;;;18.77;8.13;;;0.40;99.90;;;;;;4899455;29;20058;-76
2022/03/05 06:40:41;;;;;;;20.20;8.03;;;0.40;99.90;;;;;;4899048;29;20043;-76
2022/03/05 06:43:07;;;;;;;18.50;7.47;;;0.40;99.90;;;;;;4916418;29;20075;-76
2022/03/05 06:45:33;;;;;;;17.30;7.50;;;0.40;99.90;;;;;;4915992;29;20063;-76
2022/03/05 06:47:58;;;;;;;16.33;7.30;;;0.40;99.90;;;;;;4916803;29;20488;-76
2022/03/05 06:50:25;;;;;;;15.63;6.83;;;0.50;99.90;;;;;;4915626;29;20071;-76
2022/03/05 06:52:51;;;;;;;15.17;7.40;;;0.50;99.90;;;;;;4899946;29;20119;-76
2022/03/05 06:55:16;;;;;;;19.63;7.70;;;0.50;99.90;;;;;;4899909;29;20120;-76
2022/03/05 06:57:44;;;;;;;19.13;8.03;;;0.50;99.90;;;;;;4899022;29;20115;-76
2022/03/05 07:00:12;;;;;;;17.47;7.33;;;0.60;99.90;;;;;;4899633;29;20036;-76
2022/03/05 07:02:37;;;;;;;16.90;7.57;;;0.60;99.90;;;;;;4898945;29;20055;-76
2022/03/05 07:05:03;;;;;;;14.00;6.70;;;0.60;99.90;;;;;;4916550;29;20028;-76
2022/03/05 07:07:29;;;;;;;17.27;7.27;;;0.60;99.90;;;;;;4898884;29;20028;-76
2022/03/05 07:09:55;;;;;;;18.00;7.70;;;0.70;99.90;;;;;;4901065;29;20040;-76
2022/03/05 07:12:21;;;;;;;17.23;6.70;;;0.70;99.90;;;;;;4920223;29;20040;-76
2022/03/05 07:14:48;;;;;;;17.27;6.83;;;0.80;99.90;;;;;;4903280;29;20039;-76
2022/03/05 07:17:18;;;;;;;15.87;6.80;;;0.80;99.90;;;;;;4903387;29;20164;-76
2022/03/05 07:19:44;;;;;;;15.30;6.80;;;0.90;99.90;;;;;;4919533;29;20064;-76
2022/03/05 07:22:10;;;;;;;13.97;7.10;;;0.90;99.90;;;;;;4903177;29;20028;-76
2022/03/05 07:24:36;;;;;;;15.53;6.63;;;0.90;99.90;;;;;;4919442;29;20024;-76
2022/03/05 07:27:01;;;;;;;14.53;6.53;;;1.00;99.90;;;;;;4902875;29;20060;-75
2022/03/05 07:29:27;;;;;;;15.03;6.40;;;1.00;99.90;;;;;;4919185;29;20024;-76
2022/03/05 07:31:53;;;;;;;17.13;7.53;;;1.10;99.90;;;;;;4902298;29;20135;-76
2022/03/05 07:34:19;;;;;;;16.13;7.10;;;1.20;99.90;;;;;;4902906;29;20052;-75
2022/03/05 07:36:44;;;;;;;16.43;7.20;;;1.20;99.90;;;;;;4902005;29;20032;-76
2022/03/05 07:39:10;;;;;;;17.73;7.13;;;1.20;99.90;;;;;;4919876;29;20107;-76
2022/03/05 07:41:36;;;;;;;15.10;6.70;;;1.30;99.90;;;;;;4902186;29;20132;-77
2022/03/05 07:44:03;;;;;;;16.27;7.20;;;1.40;99.90;;;;;;4919853;29;20036;-76
2022/03/05 07:46:29;;;;;;;15.73;7.33;;;1.40;99.90;;;;;;4919015;29;20100;-77
2022/03/05 07:48:55;;;;;;;15.60;7.03;;;1.40;99.90;;;;;;4902835;29;20371;-76
2022/03/05 07:51:20;;;;;;;16.57;6.90;;;1.50;99.90;;;;;;4903030;29;20095;-77
2022/03/05 07:53:46;;;;;;;16.87;7.87;;;1.50;99.90;;;;;;4919288;29;20454;-76
2022/03/05 07:56:12;;;;;;;15.27;6.83;;;1.60;99.90;;;;;;4902812;29;20024;-76
2022/03/05 07:58:37;;;;;;;14.90;6.50;;;1.60;99.90;;;;;;4902242;29;20035;-76
2022/03/05 08:01:03;;;;;;;17.43;7.10;;;1.60;99.90;;;;;;4902420;29;20393;-76
2022/03/05 08:03:29;;;;;;;15.00;6.80;;;1.70;99.90;;;;;;4918490;29;20594;-75
2022/03/05 08:05:55;;;;;;;16.33;7.00;;;1.80;99.90;;;;;;4902266;29;20032;-76
2022/03/05 08:08:21;;;;;;;14.80;7.73;;;1.80;99.60;;;;;;4902454;29;20032;-77
2022/03/05 08:10:46;;;;;;;15.63;7.07;;;1.90;99.90;;;;;;4901788;29;20066;-77
2022/03/05 08:13:12;;;;;;;17.87;7.97;;;1.90;99.50;;;;;;4902469;29;20040;-77
2022/03/05 08:15:38;;;;;;;15.00;7.30;;;2.00;99.20;;;;;;4902040;29;20020;-77
2022/03/05 08:18:04;;;;;;;18.47;7.57;;;2.00;99.20;;;;;;4902074;29;20072;-76
2022/03/05 08:20:31;;;;;;;16.33;7.20;;;2.10;99.80;;;;;;4918335;29;20038;-76
2022/03/05 08:22:58;;;;;;;16.13;6.63;;;2.10;99.90;;;;;;4902329;29;20516;-76
2022/03/05 08:25:24;;;;;;;15.07;7.20;;;2.20;98.90;;;;;;4930117;29;20059;-75
2022/03/05 08:27:53;;;;;;;15.83;7.07;;;2.20;98.90;;;;;;4920552;29;20024;-76
2022/03/05 08:30:19;;;;;;;14.47;7.27;;;2.30;99.00;;;;;;4920431;29;20042;-76
2022/03/05 08:32:45;;;;;;;15.73;7.20;;;2.40;98.60;;;;;;4919732;29;20042;-76
2022/03/05 08:35:11;;;;;;;16.50;7.10;;;2.40;98.40;;;;;;4920631;29;20027;-76
2022/03/05 08:37:38;;;;;;;15.23;7.50;;;2.40;98.10;;;;;;4919491;29;20370;-76
2022/03/05 08:40:06;;;;;;;17.73;7.93;;;2.40;98.50;;;;;;4920427;29;20457;-76
2022/03/05 08:42:31;;;;;;;20.13;7.80;;;2.50;98.40;;;;;;4919449;29;20354;-75
2022/03/05 08:44:57;;;;;;;19.10;8.03;;;2.60;98.00;;;;;;4936983;29;20031;-75
2022/03/05 08:47:23;;;;;;;15.47;7.23;;;2.60;97.40;;;;;;4937240;29;20449;-77
2022/03/05 08:49:48;;;;;;;16.07;7.57;;;2.60;97.10;;;;;;4919212;29;20533;-76
2022/03/05 08:52:17;;;;;;;17.40;8.13;;;2.60;96.90;;;;;;4919858;29;20039;-76
2022/03/05 08:54:43;;;;;;;18.70;8.43;;;2.70;97.30;;;;;;4919624;29;20477;-76
2022/03/05 08:57:11;;;;;;;17.57;7.93;;;2.80;97.40;;;;;;4920197;29;20143;-75
2022/03/05 08:59:38;;;;;;;19.80;7.77;;;2.80;97.50;;;;;;4936322;29;20531;-75
2022/03/05 09:02:04;;;;;;;18.17;8.10;;;2.90;97.70;;;;;;4911364;29;20078;-77
2022/03/05 09:04:30;;;;;;;16.23;7.60;;;2.90;97.30;;;;;;4928134;29;20028;-76
2022/03/05 09:06:56;;;;;;;19.17;9.07;;;3.00;97.10;;;;;;4907499;29;20028;-75
2022/03/05 09:09:21;;;;;;;18.43;7.63;;;3.10;97.10;;;;;;4921105;29;20028;-76
2022/03/05 09:11:47;;;;;;;17.87;8.13;;;3.10;97.20;;;;;;4900646;29;20398;-78
2022/03/05 09:14:13;;;;;;;16.90;8.53;;;3.10;96.40;;;;;;4901621;29;20080;-78
2022/03/05 09:16:39;;;;;;;20.13;8.30;;;3.30;96.30;;;;;;4917391;29;20083;-76
2022/03/05 09:19:05;;;;;;;17.50;7.77;;;3.40;96.50;;;;;;4900909;29;20038;-77
2022/03/05 09:21:32;;;;;;;18.90;8.53;;;3.50;95.60;;;;;;4928351;29;20032;-76
2022/03/05 09:23:58;;;;;;;18.50;7.63;;;3.50;95.20;;;;;;4919778;29;20082;-76
2022/03/05 09:26:24;;;;;;;25.33;11.17;;;3.50;95.10;;;;;;4918424;29;20024;-75
2022/03/05 09:28:50;;;;;;;18.47;8.47;;;3.60;94.70;;;;;;4901975;29;20051;-75
2022/03/05 09:31:17;;;;;;;20.93;8.90;;;3.70;95.00;;;;;;4925350;29;20048;-76
2022/03/05 09:33:43;;;;;;;19.20;8.13;;;3.80;96.00;;;;;;4913255;29;20024;-76
2022/03/05 09:36:09;;;;;;;19.77;8.80;;;3.80;94.60;;;;;;4919538;29;20038;-76
2022/03/05 09:38:35;;;;;;;22.67;9.10;;;3.80;95.20;;;;;;4935591;29;20039;-76
2022/03/05 09:41:05;;;;;;;18.07;8.53;;;4.00;94.30;;;;;;4929921;29;20044;-77
2022/03/05 09:43:32;;;;;;;18.57;8.00;;;4.00;92.80;;;;;;4902930;29;20036;-76
2022/03/05 09:46:02;;;;;;;17.27;7.70;;;4.10;92.40;;;;;;4902302;29;20028;-75
2022/03/05 09:48:28;;;;;;;17.47;7.63;;;4.20;93.60;;;;;;4900194;29;20061;-76
2022/03/05 09:50:57;;;;;;;16.77;8.33;;;4.20;93.10;;;;;;4906296;29;20083;-77
2022/03/05 09:53:30;;;;;;;17.07;7.60;;;4.30;93.20;;;;;;4936290;29;20036;-76
2022/03/05 09:55:56;;;;;;;19.03;8.07;;;4.30;91.70;;;;;;4918820;29;20457;-77
2022/03/05 09:58:22;;;;;;;18.03;8.00;;;4.30;91.20;;;;;;4919468;29;20123;-77
2022/03/05 10:00:48;;;;;;;17.40;7.60;;;4.50;93.40;;;;;;4912599;29;20073;-77
2022/03/05 10:03:15;;;;;;;15.27;7.20;;;4.50;91.00;;;;;;4899941;29;20032;-76
2022/03/05 10:05:41;;;;;;;20.80;7.80;;;4.60;91.30;;;;;;4899317;29;20028;-76
2022/03/05 10:08:08;;;;;;;13.47;6.60;;;4.70;91.70;;;;;;4899553;29;20116;-76
2022/03/05 10:10:53;;;;;;;16.53;6.87;;;4.80;89.90;;;;;;4919843;29;20026;-76
2022/03/05 10:13:30;;;;;;;16.97;7.17;;;4.90;86.50;;;;;;4936025;29;20122;-76
2022/03/05 10:16:04;;;;;;;13.27;6.20;;;5.00;88.40;;;;;;4911303;29;20481;-75
2022/03/05 10:18:32;;;;;;;11.90;5.33;;;5.10;83.80;;;;;;4907253;29;20028;-75
2022/03/05 10:20:59;;;;;;;13.50;6.00;;;5.20;80.10;;;;;;4909737;29;20445;-77
2022/03/05 10:23:25;;;;;;;9.93;5.33;;;5.20;78.50;;;;;;4909956;29;20087;-76
2022/03/05 10:25:54;;;;;;;11.33;5.30;;;5.30;69.50;;;;;;4922916;29;20032;-76
2022/03/05 10:28:27;;;;;;;12.37;6.00;;;5.30;69.50;;;;;;4910130;29;20401;-76
2022/03/05 10:31:02;;;;;;;12.37;5.57;;;5.30;70.00;;;;;;4903065;29;20099;-76
2022/03/05 10:33:32;;;;;;;9.97;5.27;;;5.30;69.00;;;;;;4929363;29;20020;-76
2022/03/05 10:36:06;;;;;;;9.83;4.63;;;5.30;68.70;;;;;;4912187;29;20024;-75
2022/03/05 10:38:58;;;;;;;11.83;5.40;;;5.20;69.00;;;;;;4910638;29;20087;-77
2022/03/05 10:41:38;;;;;;;12.48;5.30;;;5.30;69.10;;;;;;4924071;29;20044;-77
2022/03/05 10:44:17;;;;;;;12.80;5.20;;;5.30;70.30;;;;;;4903947;29;20386;-77
2022/03/05 10:46:58;;;;;;;12.77;5.50;;;5.30;73.00;;;;;;4909704;29;20034;-77
2022/03/05 10:49:29;;;;;;;10.07;5.30;;;5.40;71.50;;;;;;4908904;29;20028;-77
2022/03/05 10:52:00;;;;;;;9.90;4.60;;;5.40;72.50;;;;;;4909955;29;20028;-77
2022/03/05 10:54:27;;;;;;;8.82;4.40;;;5.60;68.70;;;;;;4915070;29;20040;-78
2022/03/05 10:56:56;;;;;;;8.40;4.03;;;5.60;66.90;;;;;;4918858;29;20031;-77
2022/03/05 10:59:22;;;;;;;7.90;4.00;;;5.60;62.80;;;;;;4934688;29;20676;-77
2022/03/05 11:01:48;;;;;;;7.17;3.67;;;5.70;60.80;;;;;;4916968;29;20032;-76
2022/03/05 11:04:14;;;;;;;9.40;3.77;;;5.70;59.10;;;;;;4917405;29;20087;-77
2022/03/05 11:06:44;;;;;;;6.43;3.17;;;5.80;60.30;;;;;;4916975;29;20032;-76
2022/03/05 11:09:11;;;;;;;6.30;3.13;;;5.90;57.70;;;;;;4900326;29;20050;-80
2022/03/05 11:11:39;;;;;;;9.70;3.83;;;6.00;57.30;;;;;;4898026;29;20062;-78
2022/03/05 11:14:06;;;;;;;7.37;3.53;;;6.00;57.20;;;;;;4909737;29;20040;-76
2022/03/05 11:16:32;;;;;;;8.00;3.67;;;5.90;58.00;;;;;;4917844;29;20457;-76
2022/03/05 11:18:58;;;;;;;6.53;3.63;;;5.90;58.40;;;;;;4933730;29;20162;-78
2022/03/05 11:21:28;;;;;;;7.83;3.80;;;5.90;57.90;;;;;;4917541;29;20435;-78
2022/03/05 11:23:53;;;;;;;9.30;3.90;;;6.00;58.70;;;;;;4939927;29;20139;-78
2022/03/05 11:26:20;;;;;;;9.17;3.77;;;6.10;58.20;;;;;;4926906;29;20029;-76
2022/03/05 11:28:48;;;;;;;6.80;3.30;;;6.20;58.00;;;;;;4916215;29;20031;-77
2022/03/05 11:31:22;;;;;;;5.33;2.87;;;6.30;57.10;;;;;;4925455;29;20059;-76
2022/03/05 11:33:49;;;;;;;6.47;3.37;;;6.30;56.70;;;;;;4902646;29;20028;-77
2022/03/05 11:36:26;;;;;;;7.63;3.53;;;6.50;56.50;;;;;;4909765;29;20032;-76
2022/03/05 11:39:31;;;;;;;6.80;3.77;;;6.50;56.10;;;;;;4911025;29;20027;-76
2022/03/05 11:42:01;;;;;;;8.17;3.53;;;6.60;56.10;;;;;;4904158;29;20180;-76
2022/03/05 11:44:29;;;;;;;8.47;3.73;;;6.60;57.30;;;;;;4931247;29;20455;-76
2022/03/05 11:47:31;;;;;;;6.90;3.83;;;6.70;57.40;;;;;;4902741;29;20175;-76
2022/03/05 11:49:58;;;;;;;8.65;4.40;;;6.90;56.70;;;;;;4916070;29;20042;-76
2022/03/05 11:52:43;;;;;;;7.73;3.90;;;6.90;55.40;;;;;;4903658;29;20039;-76
2022/03/05 11:55:17;;;;;;;9.10;4.50;;;7.00;55.60;;;;;;4917690;29;20495;-77
2022/03/05 11:57:51;;;;;;;8.17;4.80;;;7.00;57.10;;;;;;4920613;29;20067;-78
2022/03/05 12:00:25;;;;;;;8.67;4.43;;;7.00;57.00;;;;;;4920863;29;20429;-76
2022/03/05 12:02:51;;;;;;;11.63;5.23;;;7.00;57.60;;;;;;4937185;29;20075;-77
2022/03/05 12:05:35;;;;;;;11.43;5.33;;;7.00;56.90;;;;;;4922269;29;20106;-76
2022/03/05 12:08:02;;;;;;;10.70;5.43;;;7.20;59.80;;;;;;4911495;29;20023;-76
2022/03/05 12:10:27;;;;;;;9.97;5.17;;;7.30;58.40;;;;;;4920608;29;20440;-76
2022/03/05 12:12:56;;;;;;;12.43;5.53;;;7.40;59.00;;;;;;4920003;29;20040;-77
2022/03/05 12:15:26;;;;;;;10.18;5.28;;;7.50;57.40;;;;;;4921382;29;20055;-79
2022/03/05 12:17:53;;;;;;;10.02;5.45;;;7.60;57.40;;;;;;4920128;29;20127;-78
2022/03/05 12:20:33;;;;;;;10.93;5.45;;;7.70;57.20;;;;;;4937474;29;20028;-79
2022/03/05 12:23:04;;;;;;;11.10;5.13;;;7.70;53.00;;;;;;4912195;29;20028;-79
2022/03/05 12:25:33;;;;;;;11.50;5.50;;;7.90;54.90;;;;;;4902786;29;20024;-79
2022/03/05 12:27:59;;;;;;;9.95;5.15;;;8.10;53.80;;;;;;4918326;29;20038;-78
2022/03/05 12:30:44;;;;;;;8.52;4.65;;;8.30;53.60;;;;;;4920772;29;20039;-78
2022/03/05 12:33:14;;;;;;;8.15;4.82;;;8.60;53.50;;;;;;4911518;29;20035;-83
2022/03/05 12:35:41;;;;;;;8.82;4.40;;;8.80;52.40;;;;;;4922062;29;20032;-81
2022/03/05 12:38:07;;;;;;;8.45;4.00;;;9.10;52.20;;;;;;4916213;29;20028;-80
2022/03/05 12:40:34;;;;;;;7.90;4.63;;;9.40;50.70;;;;;;4937760;29;20036;-79
2022/03/05 12:43:03;;;;;;;8.52;4.85;;;9.70;51.10;;;;;;4910187;29;20040;-77
2022/03/05 12:45:34;;;;;;;9.48;4.53;;;9.80;49.10;;;;;;4919697;29;20039;-77
2022/03/05 12:48:14;;;;;;;9.38;4.70;;;10.00;48.30;;;;;;4916501;29;20523;-77
2022/03/05 12:50:43;;;;;;;8.80;3.90;;;9.90;49.10;;;;;;4915573;29;20039;-78